Time;durP1;ratioP1;P1;durP2;ratioP2;P2;SDS_P1;SDS_P2;PMS_P1;PMS_P2;Temp;Humidity;BMP_temperature;BMP_pressure;BME280_temperature;BME280_humidity;BME280_pressure;Samples;Min_cycle;Max_cycle;Signal;HPM_P1;HPM_P2
2024/02/21 00:01:27;;;;;;;;;9.00;9.00;;;;;-147.14;100.00;58812.66;5017973;28;45276;-54
2024/02/21 00:03:52;;;;;;;;;11.33;8.33;;;;;-147.14;100.00;58812.66;5006217;28;74570;-50
2024/02/21 00:06:17;;;;;;;;;9.00;8.67;;;;;-147.14;100.00;58812.66;5012888;28;53327;-52
2024/02/21 00:08:43;;;;;;;;;10.67;10.67;;;;;-147.14;100.00;58812.66;5003768;28;69133;-52
2024/02/21 00:11:08;;;;;;;;;14.67;9.00;;;;;-147.14;100.00;58812.66;4997864;28;65100;-48
2024/02/21 00:13:33;;;;;;;;;12.00;8.33;;;;;-147.14;100.00;58812.66;5001923;28;74903;-49
2024/02/21 00:16:01;;;;;;;;;7.33;7.33;;;;;-147.14;100.00;58812.66;5001500;28;69431;-51
2024/02/21 00:18:26;;;;;;;;;9.00;8.33;;;;;-147.14;100.00;58812.66;5014416;28;45362;-50
2024/02/21 00:20:51;;;;;;;;;9.33;9.00;;;;;-147.14;100.00;58812.66;5018034;28;62363;-51
2024/02/21 00:23:17;;;;;;;;;8.67;8.67;;;;;-147.14;100.00;58812.66;5015798;28;46290;-51
2024/02/21 00:25:42;;;;;;;;;13.00;9.33;;;;;-147.14;100.00;58812.66;5006324;28;45360;-50
2024/02/21 00:28:07;;;;;;;;;12.33;9.33;;;;;-147.14;100.00;58812.66;5016802;28;63117;-52
2024/02/21 00:30:32;;;;;;;;;12.33;11.00;;;;;-147.14;100.00;58812.66;5000183;28;57992;-51
2024/02/21 00:32:58;;;;;;;;;13.33;8.33;;;;;-147.14;100.00;58812.66;5001369;28;70780;-49
2024/02/21 00:35:23;;;;;;;;;13.33;11.00;;;;;-147.14;100.00;58812.66;5014589;28;62312;-51
2024/02/21 00:37:48;;;;;;;;;12.00;10.33;;;;;-147.14;100.00;58812.66;5005734;28;65943;-48
2024/02/21 00:40:19;;;;;;;;;10.67;9.33;;;;;-147.14;100.00;58812.66;5005861;28;69408;-52
2024/02/21 00:42:45;;;;;;;;;12.33;11.00;;;;;-147.14;100.00;58812.66;5018077;28;47426;-48
2024/02/21 00:45:11;;;;;;;;;15.33;9.33;;;;;-147.14;100.00;58812.66;4996373;28;45896;-48
2024/02/21 00:47:36;;;;;;;;;12.33;8.33;;;;;-147.14;100.00;58812.66;5002947;28;45736;-48
2024/02/21 00:50:02;;;;;;;;;11.33;10.33;;;;;-147.14;100.00;58812.66;5008280;28;69398;-51
2024/02/21 00:52:27;;;;;;;;;14.00;11.33;;;;;-147.14;100.00;58812.66;5002279;28;70263;-50
2024/02/21 00:54:52;;;;;;;;;13.00;10.67;;;;;-147.14;100.00;58812.66;4972411;28;46413;-51
2024/02/21 00:57:18;;;;;;;;;8.33;8.33;;;;;-147.14;100.00;58812.66;5012952;28;69247;-50
2024/02/21 00:59:43;;;;;;;;;11.67;9.67;;;;;-147.14;100.00;58812.66;5006260;28;70467;-48
2024/02/21 01:02:08;;;;;;;;;9.00;8.67;;;;;-147.14;100.00;58812.66;4998236;28;47255;-48
2024/02/21 01:04:34;;;;;;;;;8.67;8.67;;;;;-147.14;100.00;58812.66;5008377;28;45536;-51
2024/02/21 01:07:00;;;;;;;;;12.67;10.33;;;;;-147.14;100.00;58812.66;5003055;28;45325;-50
2024/02/21 01:09:25;;;;;;;;;12.33;11.00;;;;;-147.14;100.00;58812.66;5009467;28;45671;-49
2024/02/21 01:11:51;;;;;;;;;8.33;8.33;;;;;-147.14;100.00;58812.66;5010839;28;71624;-48
2024/02/21 01:14:16;;;;;;;;;10.00;10.00;;;;;-147.14;100.00;58812.66;5017755;28;45470;-48
2024/02/21 01:16:41;;;;;;;;;13.00;8.33;;;;;-147.14;100.00;58812.66;5002598;28;68964;-52
2024/02/21 01:19:07;;;;;;;;;11.67;10.00;;;;;-147.14;100.00;58812.66;5007879;28;70724;-50
2024/02/21 01:21:32;;;;;;;;;14.00;11.67;;;;;-147.14;100.00;58812.66;5009240;28;45551;-48
2024/02/21 01:23:57;;;;;;;;;12.33;8.67;;;;;-147.14;100.00;58812.66;5018799;28;69622;-47
2024/02/21 01:26:23;;;;;;;;;11.67;8.33;;;;;-147.14;100.00;58812.66;5005797;28;68179;-48
2024/02/21 01:28:48;;;;;;;;;10.00;10.00;;;;;-147.14;100.00;58812.66;5008305;28;45321;-50
2024/02/21 01:31:15;;;;;;;;;15.67;13.00;;;;;-147.14;100.00;58812.66;5020582;28;46386;-48
2024/02/21 01:33:41;;;;;;;;;9.67;8.00;;;;;-147.14;100.00;58812.66;5020177;28;45588;-51
2024/02/21 01:36:06;;;;;;;;;12.00;9.67;;;;;-147.14;100.00;58812.66;5007939;28;45440;-48
2024/02/21 01:38:32;;;;;;;;;12.00;10.00;;;;;-147.14;100.00;58812.66;5003445;28;46586;-52
2024/02/21 01:40:57;;;;;;;;;18.67;9.67;;;;;-147.14;100.00;58812.66;4998065;28;45684;-48
2024/02/21 01:43:23;;;;;;;;;12.67;12.00;;;;;-147.14;100.00;58812.66;5018273;28;45320;-50
2024/02/21 01:45:50;;;;;;;;;13.00;11.00;;;;;-147.14;100.00;58812.66;5016700;28;45448;-50
2024/02/21 01:48:19;;;;;;;;;12.00;12.00;;;;;-147.14;100.00;58812.66;5019113;28;45284;-47
2024/02/21 01:50:45;;;;;;;;;11.33;10.00;;;;;-147.14;100.00;58812.66;5002298;28;52298;-49
2024/02/21 01:53:17;;;;;;;;;10.00;10.00;;;;;-147.14;100.00;58812.66;5000543;28;45312;-48
2024/02/21 01:55:43;;;;;;;;;14.00;9.67;;;;;-147.14;100.00;58812.66;5020311;28;45400;-52
2024/02/21 01:58:09;;;;;;;;;18.67;14.67;;;;;-147.14;100.00;58812.66;5000531;28;45690;-51
2024/02/21 02:00:35;;;;;;;;;16.33;11.33;;;;;-147.14;100.00;58812.66;4998119;28;67838;-51
2024/02/21 02:03:01;;;;;;;;;14.33;10.00;;;;;-147.14;100.00;58812.66;5002140;28;45533;-48
2024/02/21 02:05:26;;;;;;;;;16.67;12.67;;;;;-147.14;100.00;58812.66;5017592;28;53946;-48
2024/02/21 02:07:52;;;;;;;;;10.00;10.00;;;;;-147.14;100.00;58812.66;4993639;28;45517;-48
2024/02/21 02:10:17;;;;;;;;;10.67;10.33;;;;;-147.14;100.00;58812.66;5018632;28;75542;-49
2024/02/21 02:12:43;;;;;;;;;13.67;9.67;;;;;-147.14;100.00;58812.66;5007319;28;45298;-49
2024/02/21 02:15:08;;;;;;;;;12.67;12.67;;;;;-147.14;100.00;58812.66;4983866;28;45465;-50
2024/02/21 02:17:33;;;;;;;;;14.00;11.33;;;;;-147.14;100.00;58812.66;4990061;28;45386;-50
2024/02/21 02:19:59;;;;;;;;;12.67;9.67;;;;;-147.14;100.00;58812.66;4996594;28;53292;-48
2024/02/21 02:22:28;;;;;;;;;12.67;10.33;;;;;-147.14;100.00;58812.66;4998233;28;71255;-50
2024/02/21 02:24:54;;;;;;;;;15.67;12.33;;;;;-147.14;100.00;58812.66;4987466;28;45309;-49
2024/02/21 02:27:19;;;;;;;;;8.00;6.67;;;;;-147.14;100.00;58812.66;4999156;28;45356;-49
2024/02/21 02:29:45;;;;;;;;;12.00;8.00;;;;;-147.14;100.00;58812.66;4998981;28;75172;-49
2024/02/21 02:32:11;;;;;;;;;16.50;13.00;;;;;-147.14;100.00;58812.66;4998251;28;45537;-47
2024/02/21 02:34:36;;;;;;;;;16.00;12.67;;;;;-147.14;100.00;58812.66;4985264;28;45364;-49
2024/02/21 02:37:01;;;;;;;;;18.33;13.00;;;;;-147.14;100.00;58812.66;4997958;28;66661;-49
2024/02/21 02:39:27;;;;;;;;;15.00;13.67;;;;;-147.14;100.00;58812.66;5000003;28;45828;-50
2024/02/21 02:41:52;;;;;;;;;13.33;11.67;;;;;-147.14;100.00;58812.66;4992029;28;45422;-50
2024/02/21 02:44:18;;;;;;;;;16.00;13.33;;;;;-147.14;100.00;58812.66;4993712;28;68132;-50
2024/02/21 02:46:43;;;;;;;;;20.00;14.00;;;;;-147.14;100.00;58812.66;4986272;28;46301;-50
2024/02/21 02:49:08;;;;;;;;;16.00;14.00;;;;;-147.14;100.00;58812.66;4980678;28;49541;-50
2024/02/21 02:51:34;;;;;;;;;19.67;15.67;;;;;-147.14;100.00;58812.66;4997013;28;45321;-49
2024/02/21 02:53:59;;;;;;;;;16.33;15.33;;;;;-147.14;100.00;58812.66;4995032;28;69209;-51
2024/02/21 02:56:25;;;;;;;;;16.67;14.33;;;;;-147.14;100.00;58812.66;4998375;28;71301;-48
2024/02/21 02:58:50;;;;;;;;;16.00;13.00;;;;;-147.14;100.00;58812.66;4996900;28;46889;-48
2024/02/21 03:01:15;;;;;;;;;16.33;14.00;;;;;-147.14;100.00;58812.66;4981001;28;67070;-48
2024/02/21 03:03:41;;;;;;;;;15.00;13.67;;;;;-147.14;100.00;58812.66;4995284;28;67376;-52
2024/02/21 03:06:06;;;;;;;;;16.33;15.33;;;;;-147.14;100.00;58812.66;4996947;28;70606;-49
2024/02/21 03:08:32;;;;;;;;;13.67;13.67;;;;;-147.14;100.00;58812.66;4980943;28;46594;-52
2024/02/21 03:10:59;;;;;;;;;17.67;16.33;;;;;-147.14;100.00;58812.66;4996342;28;45423;-48
2024/02/21 03:13:24;;;;;;;;;18.00;16.67;;;;;-147.14;100.00;58812.66;4987732;28;45273;-52
2024/02/21 03:15:50;;;;;;;;;17.00;16.67;;;;;-147.14;100.00;58812.66;5016800;28;45309;-52
2024/02/21 03:18:15;;;;;;;;;19.33;16.33;;;;;-147.14;100.00;58812.66;5008002;28;53775;-51
2024/02/21 03:20:40;;;;;;;;;18.33;14.00;;;;;-147.14;100.00;58812.66;5011918;28;72494;-52
2024/02/21 03:23:06;;;;;;;;;18.33;15.67;;;;;-147.14;100.00;58812.66;5012030;28;68163;-51
2024/02/21 03:25:31;;;;;;;;;16.67;13.67;;;;;-147.14;100.00;58812.66;5000116;28;63311;-48
2024/02/21 03:27:57;;;;;;;;;14.00;14.00;;;;;-147.14;100.00;58812.66;5011705;28;57397;-52
2024/02/21 03:30:22;;;;;;;;;18.00;16.00;;;;;-147.14;100.00;58812.66;5011852;28;45313;-51
2024/02/21 03:32:47;;;;;;;;;17.33;14.67;;;;;-147.14;100.00;58812.66;5002083;28;67254;-50
2024/02/21 03:35:12;;;;;;;;;16.67;16.33;;;;;-147.14;100.00;58812.66;5010977;28;70524;-52
2024/02/21 03:37:38;;;;;;;;;17.33;14.00;;;;;-147.14;100.00;58812.66;5010492;28;75369;-52
2024/02/21 03:40:07;;;;;;;;;23.67;18.33;;;;;-147.14;100.00;58812.66;5013373;28;45233;-52
2024/02/21 03:42:32;;;;;;;;;21.00;17.67;;;;;-147.14;100.00;58812.66;5005939;28;45518;-52
2024/02/21 03:44:58;;;;;;;;;16.00;14.00;;;;;-147.14;100.00;58812.66;5015607;28;68646;-52
2024/02/21 03:47:23;;;;;;;;;17.33;14.67;;;;;-147.14;100.00;58812.66;5012052;28;46211;-51
2024/02/21 03:49:49;;;;;;;;;17.00;14.00;;;;;-147.14;100.00;58812.66;5017962;28;45328;-52
2024/02/21 03:52:14;;;;;;;;;19.33;12.67;;;;;-147.14;100.00;58812.66;5016912;28;45478;-52
2024/02/21 03:54:40;;;;;;;;;14.00;12.33;;;;;-147.14;100.00;58812.66;5015806;28;62779;-52
2024/02/21 03:57:06;;;;;;;;;17.00;12.33;;;;;-147.14;100.00;58812.66;4997614;28;75519;-51
2024/02/21 03:59:31;;;;;;;;;15.00;14.00;;;;;-147.14;100.00;58812.66;5011476;28;45475;-47
2024/02/21 04:01:57;;;;;;;;;15.67;13.67;;;;;-147.14;100.00;58812.66;5013476;28;69081;-49
2024/02/21 04:04:22;;;;;;;;;14.33;11.33;;;;;-147.14;100.00;58812.66;5015841;28;45598;-50
2024/02/21 04:06:50;;;;;;;;;15.00;14.67;;;;;-147.14;100.00;58812.66;5014286;28;63065;-48
2024/02/21 04:09:16;;;;;;;;;16.00;13.33;;;;;-147.14;100.00;58812.66;4989454;28;45406;-48
2024/02/21 04:11:41;;;;;;;;;15.67;15.00;;;;;-147.14;100.00;58812.66;5004843;28;45472;-49
2024/02/21 04:14:07;;;;;;;;;13.67;13.00;;;;;-147.14;100.00;58812.66;5005257;28;45266;-48
2024/02/21 04:16:32;;;;;;;;;17.33;16.67;;;;;-147.14;100.00;58812.66;5004212;28;47056;-48
2024/02/21 04:18:57;;;;;;;;;20.67;18.00;;;;;-147.14;100.00;58812.66;5001667;28;63307;-48
2024/02/21 04:21:23;;;;;;;;;16.00;16.00;;;;;-147.14;100.00;58812.66;5010380;28;45490;-47
2024/02/21 04:23:48;;;;;;;;;19.00;16.67;;;;;-147.14;100.00;58812.66;5016177;28;69845;-49
2024/02/21 04:26:13;;;;;;;;;21.33;14.67;;;;;-147.14;100.00;58812.66;4997213;28;77473;-50
2024/02/21 04:28:39;;;;;;;;;17.00;12.00;;;;;-147.14;100.00;58812.66;4995440;28;45483;-51
2024/02/21 04:31:04;;;;;;;;;14.00;14.00;;;;;-147.14;100.00;58812.66;5011268;28;45382;-48
2024/02/21 04:33:29;;;;;;;;;15.00;12.00;;;;;-147.14;100.00;58812.66;5005968;28;67421;-50
2024/02/21 04:35:55;;;;;;;;;21.67;17.00;;;;;-147.14;100.00;58812.66;5015660;28;71911;-49
2024/02/21 04:38:20;;;;;;;;;15.00;14.00;;;;;-147.14;100.00;58812.66;4985884;28;54350;-50
2024/02/21 04:40:46;;;;;;;;;15.67;14.33;;;;;-147.14;100.00;58812.66;4986552;28;45448;-50
2024/02/21 04:43:11;;;;;;;;;17.00;17.00;;;;;-147.14;100.00;58812.66;5007603;28;67399;-47
2024/02/21 04:45:36;;;;;;;;;17.33;15.00;;;;;-147.14;100.00;58812.66;5017980;28;75429;-49
2024/02/21 04:48:02;;;;;;;;;21.33;19.00;;;;;-147.14;100.00;58812.66;5014492;28;67925;-49
2024/02/21 04:50:27;;;;;;;;;19.00;16.67;;;;;-147.14;100.00;58812.66;5013385;28;45498;-49
2024/02/21 04:52:52;;;;;;;;;16.33;16.00;;;;;-147.14;100.00;58812.66;5019444;28;60667;-46
2024/02/21 04:55:18;;;;;;;;;15.00;15.00;;;;;-147.14;100.00;58812.66;5008500;28;65468;-51
2024/02/21 04:57:43;;;;;;;;;19.00;15.67;;;;;-147.14;100.00;58812.66;5013051;28;65494;-49
2024/02/21 05:00:10;;;;;;;;;19.00;15.67;;;;;-147.14;100.00;58812.66;5018717;28;45237;-49
2024/02/21 05:02:36;;;;;;;;;16.33;16.00;;;;;-147.14;100.00;58812.66;5017701;28;45440;-49
2024/02/21 05:05:02;;;;;;;;;16.00;15.67;;;;;-147.14;100.00;58812.66;5017979;28;46061;-48
2024/02/21 05:07:27;;;;;;;;;15.33;15.33;;;;;-147.14;100.00;58812.66;5009819;28;45379;-49
2024/02/21 05:09:53;;;;;;;;;13.00;12.67;;;;;-147.14;100.00;58812.66;5002706;28;67463;-52
2024/02/21 05:12:18;;;;;;;;;24.67;15.33;;;;;-147.14;100.00;58812.66;5014911;28;61689;-49
2024/02/21 05:14:43;;;;;;;;;22.33;15.67;;;;;-147.14;100.00;58812.66;4992417;28;45427;-49
2024/02/21 05:17:09;;;;;;;;;20.33;15.00;;;;;-147.14;100.00;58812.66;5015092;28;64153;-52
2024/02/21 05:19:34;;;;;;;;;18.33;15.00;;;;;-147.14;100.00;58812.66;5012700;28;61125;-52
2024/02/21 05:21:59;;;;;;;;;18.33;15.33;;;;;-147.14;100.00;58812.66;5019764;28;60290;-50
2024/02/21 05:24:25;;;;;;;;;19.67;16.33;;;;;-147.14;100.00;58812.66;5019481;28;64436;-50
2024/02/21 05:26:50;;;;;;;;;21.00;15.00;;;;;-147.14;100.00;58812.66;5020070;28;45805;-51
2024/02/21 05:29:16;;;;;;;;;17.67;15.00;;;;;-147.14;100.00;58812.66;5010812;28;45383;-49
2024/02/21 05:31:50;;;;;;;;;17.67;15.33;;;;;-147.14;100.00;58812.66;4986844;28;70523;-48
2024/02/21 05:34:15;;;;;;;;;11.67;11.33;;;;;-147.14;100.00;58812.66;5002765;28;46261;-49
2024/02/21 05:36:41;;;;;;;;;18.33;16.67;;;;;-147.14;100.00;58812.66;5018663;28;71822;-51
2024/02/21 05:39:06;;;;;;;;;18.67;18.67;;;;;-147.14;100.00;58812.66;5019523;28;45728;-52
2024/02/21 05:41:31;;;;;;;;;20.33;17.33;;;;;-147.14;100.00;58812.66;5006562;28;65646;-52
2024/02/21 05:43:57;;;;;;;;;20.00;16.67;;;;;-147.14;100.00;58812.66;4999955;28;66466;-51
2024/02/21 05:46:22;;;;;;;;;23.67;16.67;;;;;-147.14;100.00;58812.66;4989646;28;70937;-50
2024/02/21 05:48:47;;;;;;;;;18.67;15.67;;;;;-147.14;100.00;58812.66;5013639;28;62789;-52
2024/02/21 05:51:12;;;;;;;;;16.67;13.67;;;;;-147.14;100.00;58812.66;4992140;28;57557;-50
2024/02/21 05:53:40;;;;;;;;;15.67;15.67;;;;;-147.14;100.00;58812.66;5014201;28;74534;-50
2024/02/21 05:56:13;;;;;;;;;18.33;14.33;;;;;-147.14;100.00;58812.66;5000364;28;45559;-49
2024/02/21 05:58:38;;;;;;;;;16.67;15.33;;;;;-147.14;100.00;58812.66;5013641;28;45468;-50
2024/02/21 06:01:05;;;;;;;;;27.33;19.00;;;;;-147.14;100.00;58812.66;5009874;28;45221;-51
2024/02/21 06:03:30;;;;;;;;;17.00;16.00;;;;;-147.14;100.00;58812.66;4991474;28;45576;-47
2024/02/21 06:05:56;;;;;;;;;18.67;11.67;;;;;-147.14;100.00;58812.66;5018061;28;45337;-48
2024/02/21 06:08:21;;;;;;;;;18.00;14.67;;;;;-147.14;100.00;58812.66;5012105;28;68197;-49
2024/02/21 06:10:48;;;;;;;;;21.67;19.00;;;;;-147.14;100.00;58812.66;5016127;28;45590;-48
2024/02/21 06:13:13;;;;;;;;;22.33;16.67;;;;;-147.14;100.00;58812.66;5005526;28;46925;-47
2024/02/21 06:15:39;;;;;;;;;19.67;16.33;;;;;-147.14;100.00;58812.66;5019163;28;45297;-48
2024/02/21 06:18:04;;;;;;;;;17.67;17.00;;;;;-147.14;100.00;58812.66;5023087;28;45345;-48
2024/02/21 06:20:29;;;;;;;;;24.00;19.33;;;;;-147.14;100.00;58812.66;5019365;28;45847;-49
2024/02/21 06:22:55;;;;;;;;;17.33;16.33;;;;;-147.14;100.00;58812.66;5018380;28;46684;-47
2024/02/21 06:25:20;;;;;;;;;14.00;14.00;;;;;-147.14;100.00;58812.66;5001836;28;73161;-48
2024/02/21 06:27:45;;;;;;;;;19.33;18.33;;;;;-147.14;100.00;58812.66;5012123;28;68289;-50
2024/02/21 06:30:11;;;;;;;;;21.00;16.00;;;;;-147.14;100.00;58812.66;5016610;28;70590;-52
2024/02/21 06:32:36;;;;;;;;;15.33;14.33;;;;;-147.14;100.00;58812.66;5007377;28;46558;-48
2024/02/21 06:35:02;;;;;;;;;17.00;16.33;;;;;-147.14;100.00;58812.66;5017670;28;69606;-50
2024/02/21 06:37:27;;;;;;;;;17.67;15.00;;;;;-147.14;100.00;58812.66;5006884;28;48811;-50
2024/02/21 06:39:52;;;;;;;;;15.67;14.00;;;;;-147.14;100.00;58812.66;5012229;28;45400;-51
2024/02/21 06:42:18;;;;;;;;;20.00;18.00;;;;;-147.14;100.00;58812.66;4992665;28;72349;-51
2024/02/21 06:44:44;;;;;;;;;25.33;19.00;;;;;-147.14;100.00;58812.66;4994570;28;71366;-49
2024/02/21 06:47:09;;;;;;;;;23.33;16.67;;;;;-147.14;100.00;58812.66;4988258;28;45313;-50
2024/02/21 06:49:36;;;;;;;;;22.00;16.67;;;;;-147.14;100.00;58812.66;4984236;28;50928;-49
2024/02/21 06:52:03;;;;;;;;;17.33;17.00;;;;;-147.14;100.00;58812.66;4993499;28;45571;-49
2024/02/21 06:54:28;;;;;;;;;14.67;13.33;;;;;-147.14;100.00;58812.66;5005988;28;45487;-51
2024/02/21 06:56:53;;;;;;;;;18.00;15.00;;;;;-147.14;100.00;58812.66;5017504;28;45383;-49
2024/02/21 06:59:19;;;;;;;;;12.00;8.00;;;;;-147.14;100.00;58812.66;5000342;28;64121;-50
2024/02/21 07:01:48;;;;;;;;;14.33;7.67;;;;;-147.14;100.00;58812.66;5016344;28;46557;-50
2024/02/21 07:04:14;;;;;;;;;13.00;9.00;;;;;-147.14;100.00;58812.66;5017081;28;45358;-49
2024/02/21 07:06:40;;;;;;;;;13.67;11.67;;;;;-147.14;100.00;58812.66;5015742;28;45325;-51
2024/02/21 07:09:05;;;;;;;;;9.67;9.67;;;;;-147.14;100.00;58812.66;5017046;28;50494;-52
2024/02/21 07:11:30;;;;;;;;;10.00;8.00;;;;;-147.14;100.00;58812.66;5017703;28;74389;-52
2024/02/21 07:13:56;;;;;;;;;10.00;8.33;;;;;-147.14;100.00;58812.66;5014601;28;66347;-50
2024/02/21 07:16:21;;;;;;;;;14.00;12.00;;;;;-147.14;100.00;58812.66;5001979;28;45288;-52
2024/02/21 07:18:46;;;;;;;;;7.33;7.33;;;;;-147.14;100.00;58812.66;5007135;28;70128;-51
2024/02/21 07:21:12;;;;;;;;;7.33;7.00;;;;;-147.14;100.00;58812.66;5017740;28;75640;-51
2024/02/21 07:23:43;;;;;;;;;9.00;9.00;;;;;-147.14;100.00;58812.66;5000479;28;45669;-52
2024/02/21 07:26:08;;;;;;;;;12.67;11.33;;;;;-147.14;100.00;58812.66;5014651;28;46359;-50
2024/02/21 07:28:33;;;;;;;;;12.67;7.00;;;;;-147.14;100.00;58812.66;5014777;28;48279;-51
2024/02/21 07:30:59;;;;;;;;;8.33;7.67;;;;;-147.14;100.00;58812.66;5001683;28;57048;-50
2024/02/21 07:33:25;;;;;;;;;9.33;9.33;;;;;-147.14;100.00;58812.66;4999862;28;45407;-48
2024/02/21 07:35:50;;;;;;;;;14.33;10.33;;;;;-147.14;100.00;58812.66;5008541;28;45578;-48
2024/02/21 07:38:18;;;;;;;;;13.00;10.00;;;;;-147.14;100.00;58812.66;4996873;28;62478;-48
2024/02/21 07:40:45;;;;;;;;;11.00;8.67;;;;;-147.14;100.00;58812.66;5001136;28;46359;-51
2024/02/21 07:43:10;;;;;;;;;9.67;9.67;;;;;-147.14;100.00;58812.66;5006577;28;45330;-50
2024/02/21 07:45:39;;;;;;;;;8.00;7.00;;;;;-147.14;100.00;58812.66;5014272;28;45700;-48
2024/02/21 07:48:08;;;;;;;;;11.33;10.33;;;;;-147.14;100.00;58812.66;5002607;28;45255;-50
2024/02/21 07:50:33;;;;;;;;;8.67;8.67;;;;;-147.14;100.00;58812.66;4995006;28;45443;-50
2024/02/21 07:52:58;;;;;;;;;3.33;2.00;;;;;-147.14;100.00;58812.66;5000779;28;45300;-52
2024/02/21 07:55:24;;;;;;;;;7.00;6.67;;;;;-147.14;100.00;58812.66;5016414;28;45587;-48
2024/02/21 07:57:49;;;;;;;;;8.00;8.00;;;;;-147.14;100.00;58812.66;5012135;28;69276;-48
2024/02/21 08:00:19;;;;;;;;;13.33;9.33;;;;;-147.14;100.00;58812.66;5000786;28;47247;-50
2024/02/21 08:02:48;;;;;;;;;9.67;7.00;;;;;-147.14;100.00;58812.66;5008846;28;45432;-49
2024/02/21 08:05:13;;;;;;;;;9.33;8.00;;;;;-147.14;100.00;58812.66;5012455;28;45408;-50
2024/02/21 08:07:38;;;;;;;;;9.00;6.33;;;;;-147.14;100.00;58812.66;5018113;28;45479;-52
2024/02/21 08:10:04;;;;;;;;;7.00;7.00;;;;;-147.14;100.00;58812.66;5015204;28;51967;-52
2024/02/21 08:12:30;;;;;;;;;13.00;9.33;;;;;-147.14;100.00;58812.66;4995728;28;45543;-53
2024/02/21 08:14:55;;;;;;;;;12.67;8.00;;;;;-147.14;100.00;58812.66;5009017;28;62686;-52
2024/02/21 08:17:21;;;;;;;;;8.67;8.33;;;;;-147.14;100.00;58812.66;5007229;28;45537;-49
2024/02/21 08:19:46;;;;;;;;;7.00;6.67;;;;;-147.14;100.00;58812.66;5020627;28;45459;-49
2024/02/21 08:22:12;;;;;;;;;10.33;10.33;;;;;-147.14;100.00;58812.66;4985257;28;54249;-50
2024/02/21 08:24:37;;;;;;;;;4.33;4.33;;;;;-147.14;100.00;58812.66;5019891;28;45709;-53
2024/02/21 08:27:03;;;;;;;;;9.67;9.00;;;;;-147.14;100.00;58812.66;4984611;28;45594;-49
2024/02/21 08:29:28;;;;;;;;;8.33;8.00;;;;;-147.14;100.00;58812.66;5001419;28;46272;-49
2024/02/21 08:31:54;;;;;;;;;7.00;7.00;;;;;-147.14;100.00;58812.66;4997976;28;71618;-49
2024/02/21 08:34:19;;;;;;;;;8.67;8.67;;;;;-147.14;100.00;58812.66;5001331;28;68295;-53
2024/02/21 08:36:44;;;;;;;;;11.67;9.33;;;;;-147.14;100.00;58812.66;5001915;28;70367;-52
2024/02/21 08:39:10;;;;;;;;;12.67;10.33;;;;;-147.14;100.00;58812.66;5012394;28;75695;-51
2024/02/21 08:41:35;;;;;;;;;13.33;11.33;;;;;-147.14;100.00;58812.66;5018833;28;45344;-52
2024/02/21 08:44:00;;;;;;;;;9.00;9.00;;;;;-147.14;100.00;58812.66;5021842;28;45306;-52
2024/02/21 08:46:26;;;;;;;;;11.00;9.00;;;;;-147.14;100.00;58812.66;5001163;28;45522;-51
2024/02/21 08:48:52;;;;;;;;;9.00;9.00;;;;;-147.14;100.00;58812.66;5021622;28;46328;-50
2024/02/21 08:51:18;;;;;;;;;14.00;9.00;;;;;-147.14;100.00;58812.66;5014473;28;45236;-52
2024/02/21 08:53:44;;;;;;;;;12.33;10.67;;;;;-147.14;100.00;58812.66;5009147;28;45515;-53
2024/02/21 08:56:09;;;;;;;;;17.00;13.67;;;;;-147.14;100.00;58812.66;5018375;28;45464;-51
2024/02/21 08:58:36;;;;;;;;;11.33;9.00;;;;;-147.14;100.00;58812.66;5015482;28;67268;-52
2024/02/21 09:01:05;;;;;;;;;9.00;9.00;;;;;-147.14;100.00;58812.66;5018950;28;45592;-50
2024/02/21 09:03:33;;;;;;;;;13.00;10.00;;;;;-147.14;100.00;58812.66;4995041;28;45577;-50
2024/02/21 09:05:59;;;;;;;;;11.00;9.33;;;;;-147.14;100.00;58812.66;5013611;28;69320;-47
2024/02/21 09:08:25;;;;;;;;;9.00;7.33;;;;;-147.14;100.00;58812.66;5019880;28;46436;-51
2024/02/21 09:10:50;;;;;;;;;9.00;9.00;;;;;-147.14;100.00;58812.66;4986403;28;45380;-53
2024/02/21 09:13:16;;;;;;;;;10.00;8.00;;;;;-147.14;100.00;58812.66;5020261;28;45558;-50
2024/02/21 09:15:42;;;;;;;;;13.00;8.67;;;;;-147.14;100.00;58812.66;5020361;28;45800;-52
2024/02/21 09:18:08;;;;;;;;;9.33;6.33;;;;;-147.14;100.00;58812.66;5020466;28;47626;-52
2024/02/21 09:20:33;;;;;;;;;9.33;8.33;;;;;-147.14;100.00;58812.66;5020326;28;68432;-53
2024/02/21 09:22:58;;;;;;;;;12.33;8.00;;;;;-147.14;100.00;58812.66;5015835;28;45310;-53
2024/02/21 09:25:24;;;;;;;;;12.00;8.00;;;;;-147.14;100.00;58812.66;5019129;28;45478;-49
2024/02/21 09:27:49;;;;;;;;;6.33;6.00;;;;;-147.14;100.00;58812.66;5020022;28;69553;-49
2024/02/21 09:30:14;;;;;;;;;10.33;9.00;;;;;-147.14;100.00;58812.66;5018432;28;45377;-53
2024/02/21 09:32:40;;;;;;;;;10.33;7.33;;;;;-147.14;100.00;58812.66;4996313;28;45613;-51
2024/02/21 09:35:05;;;;;;;;;10.00;8.00;;;;;-147.14;100.00;58812.66;5019351;28;64792;-50
2024/02/21 09:37:31;;;;;;;;;9.00;9.00;;;;;-147.14;100.00;58812.66;5020397;28;47461;-51
2024/02/21 09:39:57;;;;;;;;;10.67;7.00;;;;;-147.14;100.00;58812.66;5020531;28;45703;-49
2024/02/21 09:42:31;;;;;;;;;9.00;7.67;;;;;-147.14;100.00;58812.66;5011762;28;45540;-53
2024/02/21 09:44:56;;;;;;;;;11.00;8.67;;;;;-147.14;100.00;58812.66;5001373;28;45681;-51
2024/02/21 09:47:42;;;;;;;;;9.33;8.33;;;;;-147.14;100.00;58812.66;5009720;28;73988;-50
2024/02/21 09:50:08;;;;;;;;;8.00;8.00;;;;;-147.14;100.00;58812.66;5016574;28;45427;-50
2024/02/21 09:52:34;;;;;;;;;10.00;8.67;;;;;-147.14;100.00;58812.66;5020083;28;45494;-53
2024/02/21 09:55:01;;;;;;;;;9.00;9.00;;;;;-147.14;100.00;58812.66;4999291;28;69452;-52
2024/02/21 09:57:26;;;;;;;;;8.33;7.00;;;;;-147.14;100.00;58812.66;5017201;28;45754;-50
2024/02/21 09:59:52;;;;;;;;;11.00;9.00;;;;;-147.14;100.00;58812.66;5014889;28;45500;-54
2024/02/21 10:02:18;;;;;;;;;12.33;10.33;;;;;-147.14;100.00;58812.66;5000621;28;45357;-53
2024/02/21 10:04:43;;;;;;;;;10.00;8.00;;;;;-147.14;100.00;58812.66;5017843;28;45280;-54
2024/02/21 10:07:09;;;;;;;;;10.67;8.00;;;;;-147.14;100.00;58812.66;5014536;28;62607;-51
2024/02/21 10:09:34;;;;;;;;;12.33;9.67;;;;;-147.14;100.00;58812.66;5020206;28;45297;-52
2024/02/21 10:12:09;;;;;;;;;9.00;8.67;;;;;-147.14;100.00;58812.66;5019452;28;68775;-52
2024/02/21 10:14:35;;;;;;;;;9.00;7.00;;;;;-147.14;100.00;58812.66;5019967;28;45455;-51
2024/02/21 10:17:00;;;;;;;;;10.00;8.67;;;;;-147.14;100.00;58812.66;5015707;28;74292;-52
2024/02/21 10:19:26;;;;;;;;;10.00;7.00;;;;;-147.14;100.00;58812.66;5002753;28;45562;-53
2024/02/21 10:22:05;;;;;;;;;10.00;8.67;;;;;-147.14;100.00;58812.66;4991936;28;67645;-53
2024/02/21 10:24:32;;;;;;;;;9.00;7.33;;;;;-147.14;100.00;58812.66;4993794;28;45370;-53
2024/02/21 10:27:08;;;;;;;;;9.67;7.67;;;;;-147.14;100.00;58812.66;5008072;28;46569;-50
2024/02/21 10:29:35;;;;;;;;;4.67;4.67;;;;;-147.14;100.00;58812.66;4999709;28;45443;-52
2024/02/21 10:32:07;;;;;;;;;9.00;9.00;;;;;-147.14;100.00;58812.66;5019990;28;45444;-50
2024/02/21 10:34:32;;;;;;;;;7.00;7.00;;;;;-147.14;100.00;58812.66;5017955;28;45546;-50
2024/02/21 10:37:05;;;;;;;;;8.00;7.33;;;;;-147.14;100.00;58812.66;4979038;28;46041;-51
2024/02/21 10:39:41;;;;;;;;;9.00;7.33;;;;;-147.14;100.00;58812.66;5004202;28;45384;-52
2024/02/21 10:42:07;;;;;;;;;6.67;6.67;;;;;-147.14;100.00;58812.66;5019455;28;45369;-49
2024/02/21 10:44:35;;;;;;;;;6.67;6.67;;;;;-147.14;100.00;58812.66;5007790;28;45487;-51
2024/02/21 10:47:04;;;;;;;;;8.00;8.00;;;;;-147.14;100.00;58812.66;4999929;28;45487;-51
2024/02/21 10:49:31;;;;;;;;;4.00;3.67;;;;;-147.14;100.00;58812.66;5003130;28;45380;-52
2024/02/21 10:52:09;;;;;;;;;8.00;5.67;;;;;-147.14;100.00;58812.66;5001642;28;45356;-49
2024/02/21 10:54:52;;;;;;;;;8.00;8.00;;;;;-147.14;100.00;58812.66;5019146;28;45503;-49